sensor_id;sensor_type;location;lat;lon;timestamp;P1;durP1;ratioP1;P2;durP2;ratioP2
7398;SDS011;3740;50.700;7.184;2023-02-07T00:00:45;13.00;;;10.10;;
7398;SDS011;3740;50.700;7.184;2023-02-07T00:03:11;15.73;;;11.70;;
7398;SDS011;3740;50.700;7.184;2023-02-07T00:05:37;14.00;;;11.00;;
7398;SDS011;3740;50.700;7.184;2023-02-07T00:08:03;15.03;;;11.23;;
7398;SDS011;3740;50.700;7.184;2023-02-07T00:10:30;16.07;;;10.70;;
7398;SDS011;3740;50.700;7.184;2023-02-07T00:12:56;11.97;;;10.10;;
7398;SDS011;3740;50.700;7.184;2023-02-07T00:15:21;14.40;;;10.17;;
7398;SDS011;3740;50.700;7.184;2023-02-07T00:17:47;13.53;;;9.83;;
7398;SDS011;3740;50.700;7.184;2023-02-07T00:20:12;12.77;;;10.20;;
7398;SDS011;3740;50.700;7.184;2023-02-07T00:22:38;12.97;;;9.87;;
7398;SDS011;3740;50.700;7.184;2023-02-07T00:25:04;12.17;;;9.57;;
7398;SDS011;3740;50.700;7.184;2023-02-07T00:27:30;13.80;;;9.67;;
7398;SDS011;3740;50.700;7.184;2023-02-07T00:29:55;12.60;;;9.57;;
7398;SDS011;3740;50.700;7.184;2023-02-07T00:32:21;11.13;;;9.53;;
7398;SDS011;3740;50.700;7.184;2023-02-07T00:34:46;13.53;;;10.00;;
7398;SDS011;3740;50.700;7.184;2023-02-07T00:37:14;13.33;;;9.87;;
7398;SDS011;3740;50.700;7.184;2023-02-07T00:39:40;11.00;;;8.70;;
7398;SDS011;3740;50.700;7.184;2023-02-07T00:42:05;12.13;;;9.10;;
7398;SDS011;3740;50.700;7.184;2023-02-07T00:44:31;11.93;;;9.13;;
7398;SDS011;3740;50.700;7.184;2023-02-07T00:46:57;12.40;;;9.13;;
7398;SDS011;3740;50.700;7.184;2023-02-07T00:49:23;9.97;;;8.53;;
7398;SDS011;3740;50.700;7.184;2023-02-07T00:51:49;10.60;;;8.67;;
7398;SDS011;3740;50.700;7.184;2023-02-07T00:54:14;14.90;;;9.47;;
7398;SDS011;3740;50.700;7.184;2023-02-07T00:56:40;11.03;;;8.47;;
7398;SDS011;3740;50.700;7.184;2023-02-07T00:59:06;12.03;;;8.60;;
7398;SDS011;3740;50.700;7.184;2023-02-07T01:01:32;10.17;;;8.33;;
7398;SDS011;3740;50.700;7.184;2023-02-07T01:03:57;10.30;;;8.60;;
7398;SDS011;3740;50.700;7.184;2023-02-07T01:06:23;12.13;;;8.33;;
7398;SDS011;3740;50.700;7.184;2023-02-07T01:08:49;12.07;;;9.07;;
7398;SDS011;3740;50.700;7.184;2023-02-07T01:11:19;13.10;;;8.93;;
7398;SDS011;3740;50.700;7.184;2023-02-07T01:13:44;12.60;;;9.70;;
7398;SDS011;3740;50.700;7.184;2023-02-07T01:16:20;11.37;;;8.87;;
7398;SDS011;3740;50.700;7.184;2023-02-07T01:18:50;10.33;;;8.03;;
7398;SDS011;3740;50.700;7.184;2023-02-07T01:21:17;12.17;;;7.93;;
7398;SDS011;3740;50.700;7.184;2023-02-07T01:23:45;10.70;;;7.50;;
7398;SDS011;3740;50.700;7.184;2023-02-07T01:26:10;10.13;;;7.60;;
7398;SDS011;3740;50.700;7.184;2023-02-07T01:28:36;9.73;;;7.67;;
7398;SDS011;3740;50.700;7.184;2023-02-07T01:31:06;9.77;;;7.83;;
7398;SDS011;3740;50.700;7.184;2023-02-07T01:33:32;11.83;;;9.00;;
7398;SDS011;3740;50.700;7.184;2023-02-07T01:35:59;9.47;;;7.87;;
7398;SDS011;3740;50.700;7.184;2023-02-07T01:38:24;8.60;;;7.20;;
7398;SDS011;3740;50.700;7.184;2023-02-07T01:40:50;8.27;;;7.07;;
7398;SDS011;3740;50.700;7.184;2023-02-07T01:43:16;8.73;;;6.40;;
7398;SDS011;3740;50.700;7.184;2023-02-07T01:45:44;7.87;;;6.50;;
7398;SDS011;3740;50.700;7.184;2023-02-07T01:48:25;9.67;;;7.27;;
7398;SDS011;3740;50.700;7.184;2023-02-07T01:50:58;8.57;;;6.77;;
7398;SDS011;3740;50.700;7.184;2023-02-07T01:53:28;8.07;;;6.90;;
7398;SDS011;3740;50.700;7.184;2023-02-07T01:55:55;10.53;;;6.83;;
7398;SDS011;3740;50.700;7.184;2023-02-07T01:58:25;7.23;;;6.53;;
7398;SDS011;3740;50.700;7.184;2023-02-07T02:00:51;7.30;;;6.23;;
7398;SDS011;3740;50.700;7.184;2023-02-07T02:03:17;8.23;;;6.60;;
7398;SDS011;3740;50.700;7.184;2023-02-07T02:05:42;7.30;;;6.30;;
7398;SDS011;3740;50.700;7.184;2023-02-07T02:08:09;7.90;;;6.63;;
7398;SDS011;3740;50.700;7.184;2023-02-07T02:16:29;8.00;;;6.43;;
7398;SDS011;3740;50.700;7.184;2023-02-07T02:33:44;8.43;;;6.90;;
7398;SDS011;3740;50.700;7.184;2023-02-07T02:38:54;6.67;;;5.77;;
7398;SDS011;3740;50.700;7.184;2023-02-07T02:41:36;6.50;;;5.90;;
7398;SDS011;3740;50.700;7.184;2023-02-07T02:44:09;6.50;;;5.67;;
7398;SDS011;3740;50.700;7.184;2023-02-07T02:46:38;5.30;;;4.80;;
7398;SDS011;3740;50.700;7.184;2023-02-07T02:49:07;5.27;;;4.77;;
7398;SDS011;3740;50.700;7.184;2023-02-07T02:51:35;5.37;;;4.43;;
7398;SDS011;3740;50.700;7.184;2023-02-07T02:54:01;5.67;;;5.13;;
7398;SDS011;3740;50.700;7.184;2023-02-07T02:56:33;5.50;;;4.93;;
7398;SDS011;3740;50.700;7.184;2023-02-07T03:02:04;6.57;;;4.90;;
7398;SDS011;3740;50.700;7.184;2023-02-07T03:12:37;4.63;;;4.23;;
7398;SDS011;3740;50.700;7.184;2023-02-07T03:15:16;4.67;;;4.27;;
7398;SDS011;3740;50.700;7.184;2023-02-07T03:18:04;5.27;;;4.77;;
7398;SDS011;3740;50.700;7.184;2023-02-07T03:20:41;5.17;;;4.67;;
7398;SDS011;3740;50.700;7.184;2023-02-07T03:23:11;5.60;;;4.70;;
7398;SDS011;3740;50.700;7.184;2023-02-07T03:25:39;5.50;;;5.00;;
7398;SDS011;3740;50.700;7.184;2023-02-07T03:28:06;5.57;;;4.87;;
7398;SDS011;3740;50.700;7.184;2023-02-07T03:30:34;5.40;;;4.90;;
7398;SDS011;3740;50.700;7.184;2023-02-07T03:33:03;5.20;;;4.77;;
7398;SDS011;3740;50.700;7.184;2023-02-07T03:35:39;5.63;;;5.03;;
7398;SDS011;3740;50.700;7.184;2023-02-07T03:38:21;5.47;;;4.97;;
7398;SDS011;3740;50.700;7.184;2023-02-07T03:40:48;4.80;;;4.30;;
7398;SDS011;3740;50.700;7.184;2023-02-07T03:43:21;5.10;;;4.50;;
7398;SDS011;3740;50.700;7.184;2023-02-07T03:45:50;4.90;;;4.50;;
7398;SDS011;3740;50.700;7.184;2023-02-07T03:48:16;4.53;;;4.13;;
7398;SDS011;3740;50.700;7.184;2023-02-07T03:50:41;4.87;;;4.37;;
7398;SDS011;3740;50.700;7.184;2023-02-07T03:53:07;5.13;;;4.63;;
7398;SDS011;3740;50.700;7.184;2023-02-07T03:55:33;5.30;;;4.80;;
7398;SDS011;3740;50.700;7.184;2023-02-07T03:57:58;5.30;;;4.80;;
7398;SDS011;3740;50.700;7.184;2023-02-07T04:00:24;5.17;;;4.70;;
7398;SDS011;3740;50.700;7.184;2023-02-07T04:02:50;4.60;;;4.27;;
7398;SDS011;3740;50.700;7.184;2023-02-07T04:05:15;4.60;;;4.20;;
7398;SDS011;3740;50.700;7.184;2023-02-07T04:07:41;4.30;;;3.90;;
7398;SDS011;3740;50.700;7.184;2023-02-07T04:10:07;4.60;;;4.20;;
7398;SDS011;3740;50.700;7.184;2023-02-07T04:12:34;4.87;;;4.47;;
7398;SDS011;3740;50.700;7.184;2023-02-07T04:15:00;6.07;;;5.57;;
7398;SDS011;3740;50.700;7.184;2023-02-07T04:17:26;5.10;;;4.60;;
7398;SDS011;3740;50.700;7.184;2023-02-07T04:19:53;4.97;;;4.47;;
7398;SDS011;3740;50.700;7.184;2023-02-07T04:22:19;4.37;;;4.07;;
7398;SDS011;3740;50.700;7.184;2023-02-07T04:24:45;4.50;;;4.10;;
7398;SDS011;3740;50.700;7.184;2023-02-07T04:27:10;4.60;;;4.20;;
7398;SDS011;3740;50.700;7.184;2023-02-07T04:29:36;4.77;;;4.30;;
7398;SDS011;3740;50.700;7.184;2023-02-07T04:32:02;4.80;;;4.30;;
7398;SDS011;3740;50.700;7.184;2023-02-07T04:34:27;5.03;;;4.63;;
7398;SDS011;3740;50.700;7.184;2023-02-07T04:36:53;4.67;;;4.27;;
7398;SDS011;3740;50.700;7.184;2023-02-07T04:39:19;4.90;;;4.40;;
7398;SDS011;3740;50.700;7.184;2023-02-07T04:41:45;5.23;;;4.73;;
7398;SDS011;3740;50.700;7.184;2023-02-07T04:44:10;4.83;;;4.43;;
7398;SDS011;3740;50.700;7.184;2023-02-07T04:46:36;4.77;;;4.37;;
7398;SDS011;3740;50.700;7.184;2023-02-07T04:49:01;5.53;;;4.33;;
7398;SDS011;3740;50.700;7.184;2023-02-07T04:51:28;4.93;;;4.53;;
7398;SDS011;3740;50.700;7.184;2023-02-07T04:53:54;4.83;;;4.20;;
7398;SDS011;3740;50.700;7.184;2023-02-07T04:56:20;4.90;;;4.40;;
7398;SDS011;3740;50.700;7.184;2023-02-07T04:58:46;4.90;;;4.40;;
7398;SDS011;3740;50.700;7.184;2023-02-07T05:01:12;4.70;;;4.30;;
7398;SDS011;3740;50.700;7.184;2023-02-07T05:03:37;5.23;;;4.73;;
7398;SDS011;3740;50.700;7.184;2023-02-07T05:06:03;5.20;;;4.70;;
7398;SDS011;3740;50.700;7.184;2023-02-07T05:08:29;4.67;;;4.27;;
7398;SDS011;3740;50.700;7.184;2023-02-07T05:10:54;4.90;;;4.50;;
7398;SDS011;3740;50.700;7.184;2023-02-07T05:13:20;5.33;;;4.83;;
7398;SDS011;3740;50.700;7.184;2023-02-07T05:15:46;5.60;;;5.10;;
7398;SDS011;3740;50.700;7.184;2023-02-07T05:18:12;6.23;;;5.70;;
7398;SDS011;3740;50.700;7.184;2023-02-07T05:20:38;6.93;;;6.23;;
7398;SDS011;3740;50.700;7.184;2023-02-07T05:23:03;9.80;;;8.80;;
7398;SDS011;3740;50.700;7.184;2023-02-07T05:25:29;10.10;;;9.10;;
7398;SDS011;3740;50.700;7.184;2023-02-07T05:27:54;10.03;;;8.57;;
7398;SDS011;3740;50.700;7.184;2023-02-07T05:30:20;9.10;;;8.20;;
7398;SDS011;3740;50.700;7.184;2023-02-07T05:32:46;8.73;;;7.83;;
7398;SDS011;3740;50.700;7.184;2023-02-07T05:35:34;6.77;;;6.17;;
7398;SDS011;3740;50.700;7.184;2023-02-07T05:38:04;6.23;;;5.63;;
7398;SDS011;3740;50.700;7.184;2023-02-07T05:40:35;7.27;;;6.37;;
7398;SDS011;3740;50.700;7.184;2023-02-07T05:43:02;7.63;;;6.90;;
7398;SDS011;3740;50.700;7.184;2023-02-07T05:45:27;8.70;;;7.80;;
7398;SDS011;3740;50.700;7.184;2023-02-07T05:47:53;7.37;;;6.77;;
7398;SDS011;3740;50.700;7.184;2023-02-07T05:50:19;8.87;;;7.97;;
7398;SDS011;3740;50.700;7.184;2023-02-07T05:52:44;8.77;;;7.97;;
7398;SDS011;3740;50.700;7.184;2023-02-07T05:55:10;14.07;;;12.63;;
7398;SDS011;3740;50.700;7.184;2023-02-07T05:57:37;16.57;;;14.90;;
7398;SDS011;3740;50.700;7.184;2023-02-07T06:00:07;13.27;;;11.87;;
7398;SDS011;3740;50.700;7.184;2023-02-07T06:02:34;11.17;;;10.03;;
7398;SDS011;3740;50.700;7.184;2023-02-07T06:04:59;8.03;;;7.23;;
7398;SDS011;3740;50.700;7.184;2023-02-07T06:07:25;7.93;;;7.17;;
7398;SDS011;3740;50.700;7.184;2023-02-07T06:09:51;8.50;;;7.70;;
7398;SDS011;3740;50.700;7.184;2023-02-07T06:12:16;8.10;;;7.30;;
7398;SDS011;3740;50.700;7.184;2023-02-07T06:14:42;10.40;;;9.50;;
7398;SDS011;3740;50.700;7.184;2023-02-07T06:17:07;10.10;;;9.20;;
7398;SDS011;3740;50.700;7.184;2023-02-07T06:19:33;10.50;;;9.50;;
7398;SDS011;3740;50.700;7.184;2023-02-07T06:21:58;11.00;;;10.00;;
7398;SDS011;3740;50.700;7.184;2023-02-07T06:24:24;10.30;;;9.40;;
7398;SDS011;3740;50.700;7.184;2023-02-07T06:26:49;10.77;;;9.77;;
7398;SDS011;3740;50.700;7.184;2023-02-07T06:29:15;10.93;;;9.93;;
7398;SDS011;3740;50.700;7.184;2023-02-07T06:31:40;9.10;;;8.30;;
7398;SDS011;3740;50.700;7.184;2023-02-07T06:34:06;8.50;;;7.80;;
7398;SDS011;3740;50.700;7.184;2023-02-07T06:36:32;7.47;;;6.87;;
7398;SDS011;3740;50.700;7.184;2023-02-07T06:38:57;6.60;;;6.00;;
7398;SDS011;3740;50.700;7.184;2023-02-07T06:41:23;6.87;;;6.27;;
7398;SDS011;3740;50.700;7.184;2023-02-07T06:43:49;6.17;;;5.67;;
7398;SDS011;3740;50.700;7.184;2023-02-07T06:46:14;5.90;;;5.30;;
7398;SDS011;3740;50.700;7.184;2023-02-07T06:48:40;5.70;;;5.20;;
7398;SDS011;3740;50.700;7.184;2023-02-07T06:51:05;6.40;;;5.50;;
7398;SDS011;3740;50.700;7.184;2023-02-07T06:53:31;7.00;;;6.40;;
7398;SDS011;3740;50.700;7.184;2023-02-07T06:55:57;7.00;;;6.30;;
7398;SDS011;3740;50.700;7.184;2023-02-07T06:58:22;6.83;;;6.23;;
7398;SDS011;3740;50.700;7.184;2023-02-07T07:00:48;7.00;;;6.30;;
7398;SDS011;3740;50.700;7.184;2023-02-07T07:03:14;6.47;;;5.87;;
7398;SDS011;3740;50.700;7.184;2023-02-07T07:05:40;6.10;;;5.50;;
7398;SDS011;3740;50.700;7.184;2023-02-07T07:08:07;5.83;;;5.10;;
7398;SDS011;3740;50.700;7.184;2023-02-07T07:10:34;6.20;;;5.60;;
7398;SDS011;3740;50.700;7.184;2023-02-07T07:12:59;6.60;;;5.90;;
7398;SDS011;3740;50.700;7.184;2023-02-07T07:15:25;6.77;;;6.07;;
7398;SDS011;3740;50.700;7.184;2023-02-07T07:17:51;7.03;;;6.33;;
7398;SDS011;3740;50.700;7.184;2023-02-07T07:20:16;5.97;;;5.40;;
7398;SDS011;3740;50.700;7.184;2023-02-07T07:22:42;6.23;;;5.63;;
7398;SDS011;3740;50.700;7.184;2023-02-07T07:25:08;6.10;;;5.50;;
7398;SDS011;3740;50.700;7.184;2023-02-07T07:27:34;6.00;;;5.40;;
7398;SDS011;3740;50.700;7.184;2023-02-07T07:30:00;7.40;;;6.70;;
7398;SDS011;3740;50.700;7.184;2023-02-07T07:32:25;8.67;;;7.77;;
7398;SDS011;3740;50.700;7.184;2023-02-07T07:34:51;10.63;;;9.17;;
7398;SDS011;3740;50.700;7.184;2023-02-07T07:37:18;14.87;;;12.33;;
7398;SDS011;3740;50.700;7.184;2023-02-07T07:39:44;14.10;;;11.77;;
7398;SDS011;3740;50.700;7.184;2023-02-07T07:42:09;14.37;;;12.57;;
7398;SDS011;3740;50.700;7.184;2023-02-07T07:44:35;15.23;;;13.63;;
7398;SDS011;3740;50.700;7.184;2023-02-07T07:47:01;15.50;;;14.00;;
7398;SDS011;3740;50.700;7.184;2023-02-07T07:49:27;19.40;;;17.30;;
7398;SDS011;3740;50.700;7.184;2023-02-07T07:51:52;18.27;;;16.40;;
7398;SDS011;3740;50.700;7.184;2023-02-07T07:54:18;20.90;;;14.20;;
7398;SDS011;3740;50.700;7.184;2023-02-07T07:56:43;13.10;;;11.47;;
7398;SDS011;3740;50.700;7.184;2023-02-07T07:59:09;12.87;;;11.63;;
7398;SDS011;3740;50.700;7.184;2023-02-07T08:01:35;15.40;;;13.37;;
7398;SDS011;3740;50.700;7.184;2023-02-07T08:04:00;14.47;;;12.97;;
7398;SDS011;3740;50.700;7.184;2023-02-07T08:06:27;12.33;;;10.20;;
7398;SDS011;3740;50.700;7.184;2023-02-07T08:08:53;11.00;;;9.40;;
7398;SDS011;3740;50.700;7.184;2023-02-07T08:11:20;10.43;;;9.43;;
7398;SDS011;3740;50.700;7.184;2023-02-07T08:13:47;12.37;;;10.00;;
7398;SDS011;3740;50.700;7.184;2023-02-07T08:16:13;11.00;;;9.90;;
7398;SDS011;3740;50.700;7.184;2023-02-07T08:18:39;11.27;;;9.57;;
7398;SDS011;3740;50.700;7.184;2023-02-07T08:21:05;10.87;;;9.40;;
7398;SDS011;3740;50.700;7.184;2023-02-07T08:23:30;10.40;;;9.30;;
7398;SDS011;3740;50.700;7.184;2023-02-07T08:25:56;10.63;;;9.53;;
7398;SDS011;3740;50.700;7.184;2023-02-07T08:28:21;11.63;;;9.30;;
7398;SDS011;3740;50.700;7.184;2023-02-07T08:30:47;9.50;;;8.43;;
7398;SDS011;3740;50.700;7.184;2023-02-07T08:33:13;11.07;;;9.73;;
7398;SDS011;3740;50.700;7.184;2023-02-07T08:35:40;13.03;;;11.30;;
7398;SDS011;3740;50.700;7.184;2023-02-07T08:38:05;12.87;;;10.57;;
7398;SDS011;3740;50.700;7.184;2023-02-07T08:40:31;11.93;;;10.67;;
7398;SDS011;3740;50.700;7.184;2023-02-07T08:42:57;14.27;;;10.10;;
7398;SDS011;3740;50.700;7.184;2023-02-07T08:45:23;10.83;;;9.73;;
7398;SDS011;3740;50.700;7.184;2023-02-07T08:47:49;10.90;;;9.80;;
7398;SDS011;3740;50.700;7.184;2023-02-07T08:50:15;11.23;;;9.53;;
7398;SDS011;3740;50.700;7.184;2023-02-07T08:52:41;11.80;;;9.83;;
7398;SDS011;3740;50.700;7.184;2023-02-07T08:55:07;11.90;;;10.53;;
7398;SDS011;3740;50.700;7.184;2023-02-07T08:57:33;11.50;;;10.37;;
7398;SDS011;3740;50.700;7.184;2023-02-07T08:59:59;9.90;;;8.90;;
7398;SDS011;3740;50.700;7.184;2023-02-07T09:02:25;9.23;;;8.30;;
7398;SDS011;3740;50.700;7.184;2023-02-07T09:04:51;10.03;;;8.37;;
7398;SDS011;3740;50.700;7.184;2023-02-07T09:07:17;9.37;;;8.47;;
7398;SDS011;3740;50.700;7.184;2023-02-07T09:09:44;8.53;;;7.73;;
7398;SDS011;3740;50.700;7.184;2023-02-07T09:12:10;7.73;;;6.93;;
7398;SDS011;3740;50.700;7.184;2023-02-07T09:14:36;7.80;;;7.03;;
7398;SDS011;3740;50.700;7.184;2023-02-07T09:17:02;8.20;;;7.50;;
7398;SDS011;3740;50.700;7.184;2023-02-07T09:19:28;8.13;;;7.33;;
7398;SDS011;3740;50.700;7.184;2023-02-07T09:21:54;8.13;;;7.30;;
7398;SDS011;3740;50.700;7.184;2023-02-07T09:24:19;8.53;;;7.73;;
7398;SDS011;3740;50.700;7.184;2023-02-07T09:26:45;8.00;;;7.30;;
7398;SDS011;3740;50.700;7.184;2023-02-07T09:29:11;8.87;;;8.07;;
7398;SDS011;3740;50.700;7.184;2023-02-07T09:31:38;8.87;;;7.97;;
7398;SDS011;3740;50.700;7.184;2023-02-07T09:34:04;8.87;;;8.07;;
7398;SDS011;3740;50.700;7.184;2023-02-07T09:36:30;8.33;;;7.63;;
7398;SDS011;3740;50.700;7.184;2023-02-07T09:38:56;8.00;;;7.30;;
7398;SDS011;3740;50.700;7.184;2023-02-07T09:41:30;8.00;;;7.30;;
7398;SDS011;3740;50.700;7.184;2023-02-07T09:47:12;8.83;;;7.37;;
7398;SDS011;3740;50.700;7.184;2023-02-07T09:49:52;7.80;;;7.10;;
7398;SDS011;3740;50.700;7.184;2023-02-07T09:55:21;7.57;;;6.97;;
7398;SDS011;3740;50.700;7.184;2023-02-07T09:57:59;9.37;;;8.00;;
7398;SDS011;3740;50.700;7.184;2023-02-07T10:00:36;8.43;;;7.53;;
7398;SDS011;3740;50.700;7.184;2023-02-07T10:03:09;7.50;;;6.90;;
7398;SDS011;3740;50.700;7.184;2023-02-07T10:05:47;7.90;;;7.13;;
7398;SDS011;3740;50.700;7.184;2023-02-07T10:08:22;7.43;;;6.73;;
7398;SDS011;3740;50.700;7.184;2023-02-07T10:10:50;7.33;;;6.63;;
7398;SDS011;3740;50.700;7.184;2023-02-07T10:18:45;5.67;;;5.13;;
7398;SDS011;3740;50.700;7.184;2023-02-07T10:26:30;4.80;;;4.40;;
7398;SDS011;3740;50.700;7.184;2023-02-07T10:31:42;4.20;;;3.90;;
7398;SDS011;3740;50.700;7.184;2023-02-07T10:34:16;5.78;;;4.95;;
7398;SDS011;3740;50.700;7.184;2023-02-07T10:36:47;4.70;;;4.25;;
7398;SDS011;3740;50.700;7.184;2023-02-07T10:42:15;4.60;;;4.05;;
7398;SDS011;3740;50.700;7.184;2023-02-07T10:44:42;4.60;;;4.20;;
7398;SDS011;3740;50.700;7.184;2023-02-07T10:47:14;4.95;;;4.55;;
7398;SDS011;3740;50.700;7.184;2023-02-07T10:49:41;4.55;;;4.25;;
7398;SDS011;3740;50.700;7.184;2023-02-07T10:54:51;4.50;;;4.20;;
7398;SDS011;3740;50.700;7.184;2023-02-07T10:57:19;4.43;;;4.13;;
7398;SDS011;3740;50.700;7.184;2023-02-07T10:59:45;5.10;;;4.60;;
7398;SDS011;3740;50.700;7.184;2023-02-07T11:04:59;5.18;;;4.68;;
7398;SDS011;3740;50.700;7.184;2023-02-07T11:07:26;5.13;;;4.72;;
7398;SDS011;3740;50.700;7.184;2023-02-07T11:12:43;5.60;;;5.18;;
7398;SDS011;3740;50.700;7.184;2023-02-07T11:15:15;5.90;;;5.35;;
7398;SDS011;3740;50.700;7.184;2023-02-07T11:17:49;5.05;;;4.65;;
7398;SDS011;3740;50.700;7.184;2023-02-07T11:20:38;5.93;;;5.43;;
7398;SDS011;3740;50.700;7.184;2023-02-07T11:23:05;5.30;;;4.90;;
7398;SDS011;3740;50.700;7.184;2023-02-07T11:25:35;5.75;;;5.25;;
7398;SDS011;3740;50.700;7.184;2023-02-07T11:28:04;6.05;;;5.47;;
7398;SDS011;3740;50.700;7.184;2023-02-07T11:30:33;5.57;;;5.15;;
7398;SDS011;3740;50.700;7.184;2023-02-07T11:33:02;6.13;;;5.63;;
7398;SDS011;3740;50.700;7.184;2023-02-07T11:35:29;5.80;;;5.30;;
7398;SDS011;3740;50.700;7.184;2023-02-07T11:38:02;6.03;;;5.53;;
7398;SDS011;3740;50.700;7.184;2023-02-07T11:40:36;6.13;;;5.55;;
7398;SDS011;3740;50.700;7.184;2023-02-07T11:43:08;5.88;;;5.40;;
7398;SDS011;3740;50.700;7.184;2023-02-07T11:45:46;6.40;;;5.80;;
7398;SDS011;3740;50.700;7.184;2023-02-07T11:48:17;5.88;;;5.38;;
7398;SDS011;3740;50.700;7.184;2023-02-07T11:51:00;5.68;;;5.18;;
7398;SDS011;3740;50.700;7.184;2023-02-07T11:53:37;6.05;;;5.45;;
7398;SDS011;3740;50.700;7.184;2023-02-07T11:56:05;6.20;;;5.70;;
7398;SDS011;3740;50.700;7.184;2023-02-07T11:58:41;5.75;;;5.30;;
7398;SDS011;3740;50.700;7.184;2023-02-07T12:01:12;6.20;;;5.70;;
7398;SDS011;3740;50.700;7.184;2023-02-07T12:03:49;6.80;;;6.20;;
7398;SDS011;3740;50.700;7.184;2023-02-07T12:06:25;6.15;;;5.63;;
7398;SDS011;3740;50.700;7.184;2023-02-07T12:08:59;6.07;;;5.47;;
7398;SDS011;3740;50.700;7.184;2023-02-07T12:11:27;6.30;;;5.80;;
7398;SDS011;3740;50.700;7.184;2023-02-07T12:14:17;6.13;;;5.55;;
7398;SDS011;3740;50.700;7.184;2023-02-07T12:16:51;6.57;;;5.73;;
7398;SDS011;3740;50.700;7.184;2023-02-07T12:19:43;6.28;;;5.68;;
7398;SDS011;3740;50.700;7.184;2023-02-07T12:22:23;6.27;;;5.77;;
7398;SDS011;3740;50.700;7.184;2023-02-07T12:24:55;7.63;;;6.30;;
7398;SDS011;3740;50.700;7.184;2023-02-07T12:27:33;6.27;;;5.73;;
7398;SDS011;3740;50.700;7.184;2023-02-07T12:32:48;6.33;;;5.63;;
7398;SDS011;3740;50.700;7.184;2023-02-07T12:40:55;6.67;;;5.30;;
7398;SDS011;3740;50.700;7.184;2023-02-07T12:43:31;5.93;;;5.43;;
7398;SDS011;3740;50.700;7.184;2023-02-07T12:53:43;6.07;;;5.57;;
7398;SDS011;3740;50.700;7.184;2023-02-07T12:56:30;6.93;;;6.33;;
7398;SDS011;3740;50.700;7.184;2023-02-07T13:02:00;6.40;;;5.80;;
7398;SDS011;3740;50.700;7.184;2023-02-07T13:12:46;6.70;;;5.30;;
7398;SDS011;3740;50.700;7.184;2023-02-07T13:18:14;5.43;;;5.03;;
7398;SDS011;3740;50.700;7.184;2023-02-07T13:20:44;6.07;;;5.57;;
7398;SDS011;3740;50.700;7.184;2023-02-07T13:23:23;6.60;;;5.27;;
7398;SDS011;3740;50.700;7.184;2023-02-07T13:25:53;5.83;;;5.30;;
7398;SDS011;3740;50.700;7.184;2023-02-07T13:28:23;5.80;;;5.30;;
7398;SDS011;3740;50.700;7.184;2023-02-07T13:30:54;5.67;;;5.17;;
7398;SDS011;3740;50.700;7.184;2023-02-07T13:38:58;6.13;;;5.33;;
7398;SDS011;3740;50.700;7.184;2023-02-07T13:41:42;6.03;;;5.47;;
7398;SDS011;3740;50.700;7.184;2023-02-07T13:49:23;5.87;;;5.37;;
7398;SDS011;3740;50.700;7.184;2023-02-07T13:52:11;5.20;;;4.80;;
7398;SDS011;3740;50.700;7.184;2023-02-07T13:54:52;6.10;;;5.50;;
7398;SDS011;3740;50.700;7.184;2023-02-07T14:00:20;5.40;;;4.90;;
7398;SDS011;3740;50.700;7.184;2023-02-07T14:02:52;6.43;;;5.83;;
7398;SDS011;3740;50.700;7.184;2023-02-07T14:05:31;6.53;;;5.70;;
7398;SDS011;3740;50.700;7.184;2023-02-07T14:08:04;6.10;;;5.60;;
7398;SDS011;3740;50.700;7.184;2023-02-07T14:13:19;6.10;;;5.50;;
7398;SDS011;3740;50.700;7.184;2023-02-07T14:18:38;7.33;;;6.10;;
7398;SDS011;3740;50.700;7.184;2023-02-07T14:29:17;6.07;;;5.47;;
7398;SDS011;3740;50.700;7.184;2023-02-07T14:31:50;6.20;;;5.60;;
7398;SDS011;3740;50.700;7.184;2023-02-07T14:40:06;6.17;;;5.67;;
7398;SDS011;3740;50.700;7.184;2023-02-07T14:42:41;6.27;;;5.60;;
7398;SDS011;3740;50.700;7.184;2023-02-07T14:45:19;6.20;;;5.67;;
7398;SDS011;3740;50.700;7.184;2023-02-07T14:47:46;6.50;;;5.90;;
7398;SDS011;3740;50.700;7.184;2023-02-07T14:50:22;5.90;;;5.40;;
7398;SDS011;3740;50.700;7.184;2023-02-07T14:52:54;5.80;;;5.30;;
7398;SDS011;3740;50.700;7.184;2023-02-07T14:58:25;5.80;;;5.30;;
7398;SDS011;3740;50.700;7.184;2023-02-07T15:00:58;6.57;;;5.97;;
7398;SDS011;3740;50.700;7.184;2023-02-07T15:03:27;6.30;;;5.70;;
7398;SDS011;3740;50.700;7.184;2023-02-07T15:06:01;5.70;;;5.10;;
7398;SDS011;3740;50.700;7.184;2023-02-07T15:08:32;6.33;;;5.73;;
7398;SDS011;3740;50.700;7.184;2023-02-07T15:11:06;6.43;;;5.83;;
7398;SDS011;3740;50.700;7.184;2023-02-07T15:13:42;7.03;;;6.37;;
7398;SDS011;3740;50.700;7.184;2023-02-07T15:16:13;6.90;;;6.20;;
7398;SDS011;3740;50.700;7.184;2023-02-07T15:18:41;6.93;;;6.23;;
7398;SDS011;3740;50.700;7.184;2023-02-07T15:21:18;6.73;;;5.57;;
7398;SDS011;3740;50.700;7.184;2023-02-07T15:23:55;6.53;;;5.90;;
7398;SDS011;3740;50.700;7.184;2023-02-07T15:26:24;6.03;;;5.43;;
7398;SDS011;3740;50.700;7.184;2023-02-07T15:28:55;5.70;;;5.20;;
7398;SDS011;3740;50.700;7.184;2023-02-07T15:31:23;6.33;;;5.73;;
7398;SDS011;3740;50.700;7.184;2023-02-07T15:33:50;6.53;;;5.93;;
7398;SDS011;3740;50.700;7.184;2023-02-07T15:36:34;6.13;;;5.53;;
7398;SDS011;3740;50.700;7.184;2023-02-07T15:42:02;5.57;;;5.07;;
7398;SDS011;3740;50.700;7.184;2023-02-07T15:44:31;5.77;;;4.93;;
7398;SDS011;3740;50.700;7.184;2023-02-07T15:52:40;5.53;;;5.03;;
7398;SDS011;3740;50.700;7.184;2023-02-07T15:55:16;6.37;;;5.77;;
7398;SDS011;3740;50.700;7.184;2023-02-07T15:57:48;6.07;;;5.47;;
7398;SDS011;3740;50.700;7.184;2023-02-07T16:00:20;5.57;;;4.97;;
7398;SDS011;3740;50.700;7.184;2023-02-07T16:02:58;5.60;;;5.10;;
7398;SDS011;3740;50.700;7.184;2023-02-07T16:05:29;5.63;;;5.13;;
7398;SDS011;3740;50.700;7.184;2023-02-07T16:07:59;5.30;;;4.80;;
7398;SDS011;3740;50.700;7.184;2023-02-07T16:13:01;5.37;;;4.90;;
7398;SDS011;3740;50.700;7.184;2023-02-07T16:15:31;5.87;;;5.27;;
7398;SDS011;3740;50.700;7.184;2023-02-07T16:18:32;5.80;;;5.30;;
7398;SDS011;3740;50.700;7.184;2023-02-07T16:20:58;7.50;;;6.70;;
7398;SDS011;3740;50.700;7.184;2023-02-07T16:23:24;8.60;;;7.70;;
7398;SDS011;3740;50.700;7.184;2023-02-07T16:25:49;10.90;;;9.57;;
7398;SDS011;3740;50.700;7.184;2023-02-07T16:28:15;14.60;;;11.47;;
7398;SDS011;3740;50.700;7.184;2023-02-07T16:30:40;17.10;;;14.30;;
7398;SDS011;3740;50.700;7.184;2023-02-07T16:33:07;16.50;;;14.90;;
7398;SDS011;3740;50.700;7.184;2023-02-07T16:35:37;17.30;;;15.40;;
7398;SDS011;3740;50.700;7.184;2023-02-07T16:38:02;17.03;;;15.37;;
7398;SDS011;3740;50.700;7.184;2023-02-07T16:40:28;16.17;;;14.57;;
7398;SDS011;3740;50.700;7.184;2023-02-07T16:42:54;14.67;;;13.17;;
7398;SDS011;3740;50.700;7.184;2023-02-07T16:45:22;14.23;;;12.77;;
7398;SDS011;3740;50.700;7.184;2023-02-07T16:47:49;16.00;;;14.30;;
7398;SDS011;3740;50.700;7.184;2023-02-07T16:50:22;12.77;;;11.47;;
7398;SDS011;3740;50.700;7.184;2023-02-07T16:52:50;11.37;;;10.33;;
7398;SDS011;3740;50.700;7.184;2023-02-07T16:55:17;12.60;;;11.40;;
7398;SDS011;3740;50.700;7.184;2023-02-07T16:57:44;13.77;;;12.40;;
7398;SDS011;3740;50.700;7.184;2023-02-07T17:00:17;14.30;;;13.00;;
7398;SDS011;3740;50.700;7.184;2023-02-07T17:02:46;14.90;;;13.40;;
7398;SDS011;3740;50.700;7.184;2023-02-07T17:05:14;14.70;;;13.17;;
7398;SDS011;3740;50.700;7.184;2023-02-07T17:07:44;14.23;;;12.87;;
7398;SDS011;3740;50.700;7.184;2023-02-07T17:10:21;13.07;;;11.73;;
7398;SDS011;3740;50.700;7.184;2023-02-07T17:12:49;13.67;;;12.37;;
7398;SDS011;3740;50.700;7.184;2023-02-07T17:15:15;14.60;;;13.10;;
7398;SDS011;3740;50.700;7.184;2023-02-07T17:17:41;13.23;;;11.93;;
7398;SDS011;3740;50.700;7.184;2023-02-07T17:20:25;13.87;;;12.27;;
7398;SDS011;3740;50.700;7.184;2023-02-07T17:22:53;13.23;;;11.87;;
7398;SDS011;3740;50.700;7.184;2023-02-07T17:25:19;13.77;;;11.23;;
7398;SDS011;3740;50.700;7.184;2023-02-07T17:27:46;12.63;;;11.33;;
7398;SDS011;3740;50.700;7.184;2023-02-07T17:30:17;12.77;;;10.83;;
7398;SDS011;3740;50.700;7.184;2023-02-07T17:32:47;13.43;;;12.03;;
7398;SDS011;3740;50.700;7.184;2023-02-07T17:35:12;15.07;;;13.47;;
7398;SDS011;3740;50.700;7.184;2023-02-07T17:37:39;17.30;;;14.80;;
7398;SDS011;3740;50.700;7.184;2023-02-07T17:42:45;13.10;;;11.80;;